Time;durP1;ratioP1;P1;durP2;ratioP2;P2;SDS_P1;SDS_P2;PMS_P1;PMS_P2;Temp;Humidity;BMP_temperature;BMP_pressure;BME280_temperature;BME280_humidity;BME280_pressure;Samples;Min_cycle;Max_cycle;Signal;HPM_P1;HPM_P2
2022/08/22 00:02:39;;;;;;;11.90;6.47;;;19.20;99.90;;;;;;5010959;28;20537;-65
2022/08/22 00:05:25;;;;;;;8.33;6.33;;;19.10;99.90;;;;;;5011472;28;20475;-65
2022/08/22 00:08:21;;;;;;;8.60;4.67;;;19.10;99.90;;;;;;5011453;28;20581;-65
2022/08/22 00:11:28;;;;;;;14.47;5.13;;;19.10;99.90;;;;;;5011623;28;20391;-64
2022/08/22 00:14:29;;;;;;;8.40;4.80;;;19.00;99.90;;;;;;5011685;28;20769;-65
2022/08/22 00:17:32;;;;;;;6.17;4.67;;;19.00;99.90;;;;;;5011463;28;20422;-65
2022/08/22 00:20:17;;;;;;;8.63;5.33;;;18.90;99.90;;;;;;5011366;28;20396;-65
2022/08/22 00:23:01;;;;;;;5.93;4.47;;;19.00;99.90;;;;;;5011469;28;20421;-65
2022/08/22 00:25:37;;;;;;;5.37;4.10;;;18.90;99.90;;;;;;5016334;28;20966;-65
2022/08/22 00:28:08;;;;;;;6.23;4.60;;;18.90;99.90;;;;;;5016903;28;20460;-66
2022/08/22 00:30:51;;;;;;;7.13;4.63;;;18.90;99.90;;;;;;5017042;28;20767;-65
2022/08/22 00:33:55;;;;;;;7.20;4.63;;;19.00;99.90;;;;;;5015174;28;20474;-65
2022/08/22 00:36:33;;;;;;;9.00;5.43;;;19.00;99.90;;;;;;5011586;28;20517;-66
2022/08/22 00:38:59;;;;;;;10.50;4.33;;;19.00;99.90;;;;;;5015012;28;20379;-66
2022/08/22 00:41:49;;;;;;;11.60;4.63;;;19.00;99.90;;;;;;5014939;28;20450;-65
2022/08/22 00:44:40;;;;;;;7.73;4.40;;;19.00;99.90;;;;;;5015127;28;20560;-66
2022/08/22 00:47:09;;;;;;;4.90;4.27;;;19.00;99.90;;;;;;5015090;28;20515;-66
2022/08/22 00:49:49;;;;;;;7.90;4.20;;;18.80;99.90;;;;;;5014933;28;20411;-64
2022/08/22 00:52:27;;;;;;;5.80;4.40;;;18.70;1.00;;;;;;5015056;28;20391;-64
2022/08/22 00:55:08;;;;;;;7.07;4.83;;;18.60;1.00;;;;;;5015190;28;20399;-64
2022/08/22 00:57:55;;;;;;;11.47;7.00;;;18.50;1.00;;;;;;5014780;28;20755;-65
2022/08/22 01:00:28;;;;;;;5.10;4.60;;;18.50;1.00;;;;;;5013310;28;20435;-65
2022/08/22 01:03:07;;;;;;;4.83;4.00;;;18.50;1.00;;;;;;5014795;28;20399;-64
2022/08/22 01:05:50;;;;;;;5.57;4.40;;;18.30;1.00;;;;;;5014608;28;20421;-65
2022/08/22 01:08:35;;;;;;;9.43;4.93;;;18.30;1.30;;;;;;5014499;28;20557;-65
2022/08/22 01:11:19;;;;;;;5.63;4.70;;;18.20;99.90;;;;;;5014576;28;20398;-65
2022/08/22 01:14:11;;;;;;;12.53;5.50;;;18.10;99.90;;;;;;5014523;28;20391;-65
2022/08/22 01:16:59;;;;;;;8.23;5.27;;;18.20;99.90;;;;;;5014373;28;20430;-64
2022/08/22 01:19:39;;;;;;;6.70;4.77;;;18.30;99.90;;;;;;5014676;28;20795;-65
2022/08/22 01:22:41;;;;;;;5.50;4.77;;;18.30;99.90;;;;;;5014223;28;20486;-65
2022/08/22 01:25:25;;;;;;;5.93;5.13;;;18.20;99.90;;;;;;5014277;28;20399;-65
2022/08/22 01:28:16;;;;;;;13.87;5.70;;;18.30;99.90;;;;;;5014236;28;20380;-65
2022/08/22 01:31:22;;;;;;;5.27;4.77;;;18.30;1.00;;;;;;5014442;28;20761;-65
2022/08/22 01:34:25;;;;;;;8.30;4.73;;;18.30;1.00;;;;;;5014184;28;20417;-65
2022/08/22 01:37:09;;;;;;;8.10;5.10;;;18.30;1.00;;;;;;5014034;28;20487;-65
2022/08/22 01:40:02;;;;;;;11.43;4.77;;;18.40;1.00;;;;;;5014262;28;20395;-65
2022/08/22 01:42:34;;;;;;;6.87;4.73;;;18.30;1.00;;;;;;5012842;28;20796;-65
2022/08/22 01:45:24;;;;;;;5.83;4.90;;;18.30;1.00;;;;;;5014079;28;20384;-66
2022/08/22 01:47:56;;;;;;;8.70;4.40;;;18.20;1.00;;;;;;5013903;28;20395;-66
2022/08/22 01:50:22;;;;;;;7.60;5.63;;;18.20;1.00;;;;;;5014131;28;20391;-66
2022/08/22 01:53:11;;;;;;;8.93;6.00;;;18.20;1.00;;;;;;5014084;28;20399;-66
2022/08/22 01:56:04;;;;;;;15.93;6.03;;;18.30;1.00;;;;;;4999850;28;20572;-66
2022/08/22 01:58:35;;;;;;;5.97;5.37;;;18.30;1.00;;;;;;5013858;28;20793;-66
2022/08/22 02:01:15;;;;;;;12.60;6.40;;;18.30;1.00;;;;;;5013673;28;20439;-65
2022/08/22 02:04:23;;;;;;;10.77;5.53;;;18.20;1.00;;;;;;5013739;28;20926;-66
2022/08/22 02:07:15;;;;;;;15.57;5.53;;;18.20;1.00;;;;;;5013535;28;20426;-65
2022/08/22 02:09:47;;;;;;;9.57;5.30;;;18.20;1.00;;;;;;5013419;28;20423;-66
2022/08/22 02:12:29;;;;;;;7.30;5.00;;;18.10;1.00;;;;;;5013760;28;21028;-66
2022/08/22 02:15:19;;;;;;;9.60;6.10;;;18.10;1.00;;;;;;5013495;28;20403;-66
2022/08/22 02:18:11;;;;;;;6.50;4.90;;;18.20;1.00;;;;;;5013143;28;20485;-65
2022/08/22 02:20:55;;;;;;;11.93;5.47;;;18.00;1.00;;;;;;5013431;28;20447;-66
2022/08/22 02:23:57;;;;;;;8.17;5.23;;;18.00;1.00;;;;;;5013318;28;20395;-65
2022/08/22 02:26:42;;;;;;;5.80;4.77;;;18.00;1.00;;;;;;5012941;28;20414;-65
2022/08/22 02:29:16;;;;;;;8.17;4.80;;;17.90;1.00;;;;;;5012978;28;20415;-65
2022/08/22 02:31:52;;;;;;;6.67;4.77;;;17.80;1.00;;;;;;5013270;28;20868;-65
2022/08/22 02:34:43;;;;;;;8.83;4.90;;;17.70;1.00;;;;;;4995704;28;20395;-65
2022/08/22 02:37:14;;;;;;;6.23;5.13;;;17.60;1.00;;;;;;5012682;28;21017;-65
2022/08/22 02:40:03;;;;;;;7.63;5.10;;;17.70;1.00;;;;;;5012748;28;20411;-65
2022/08/22 02:42:35;;;;;;;7.83;5.73;;;17.70;1.00;;;;;;5013038;28;20435;-65
2022/08/22 02:45:26;;;;;;;10.10;4.90;;;17.60;1.00;;;;;;5013008;28;20408;-65
2022/08/22 02:48:16;;;;;;;14.53;5.60;;;17.70;1.00;;;;;;5012601;28;20380;-66
2022/08/22 02:50:47;;;;;;;13.30;6.07;;;17.70;1.00;;;;;;5012763;28;20415;-65
2022/08/22 02:53:22;;;;;;;13.03;5.27;;;17.60;1.00;;;;;;5012202;28;20426;-66
2022/08/22 02:56:07;;;;;;;9.43;5.00;;;17.60;1.00;;;;;;5012530;28;20487;-65
2022/08/22 02:58:56;;;;;;;8.50;6.00;;;17.70;1.00;;;;;;5012963;28;20403;-64
2022/08/22 03:01:28;;;;;;;5.40;4.40;;;17.80;1.00;;;;;;5012737;28;20435;-65
2022/08/22 03:04:31;;;;;;;8.47;4.70;;;17.70;1.00;;;;;;5012445;28;20406;-65
2022/08/22 03:07:11;;;;;;;9.07;5.03;;;17.70;1.00;;;;;;5012343;28;20418;-66
2022/08/22 03:10:02;;;;;;;6.67;5.80;;;17.60;1.00;;;;;;5012410;28;20402;-65
2022/08/22 03:12:50;;;;;;;8.57;5.90;;;17.60;1.00;;;;;;5012753;28;20388;-64
2022/08/22 03:15:29;;;;;;;7.33;5.93;;;17.60;1.00;;;;;;5012621;28;20407;-64
2022/08/22 03:18:07;;;;;;;7.27;5.37;;;17.60;1.00;;;;;;5012119;28;20411;-65
2022/08/22 03:20:39;;;;;;;15.67;6.73;;;17.50;1.00;;;;;;5012040;28;20387;-64
2022/08/22 03:23:18;;;;;;;23.77;6.80;;;17.50;1.00;;;;;;5012106;28;20439;-65
2022/08/22 03:25:54;;;;;;;14.87;6.10;;;17.60;1.00;;;;;;5011944;28;20416;-64
2022/08/22 03:28:35;;;;;;;10.80;5.70;;;17.60;1.00;;;;;;5011937;28;20387;-65
2022/08/22 03:31:11;;;;;;;11.70;4.93;;;17.50;1.00;;;;;;5012291;28;20740;-65
2022/08/22 03:33:37;;;;;;;7.93;5.27;;;17.40;1.00;;;;;;5011870;28;20915;-65
2022/08/22 03:36:06;;;;;;;14.00;5.73;;;17.30;1.00;;;;;;5011995;28;20487;-62
2022/08/22 03:38:31;;;;;;;5.80;4.60;;;17.20;1.00;;;;;;5011934;28;20174;-66
2022/08/22 03:41:16;;;;;;;6.70;5.27;;;17.20;1.00;;;;;;5011699;28;20810;-65
2022/08/22 03:43:54;;;;;;;6.47;5.00;;;17.30;1.00;;;;;;5011828;28;20172;-65
2022/08/22 03:46:32;;;;;;;8.90;5.63;;;17.30;1.00;;;;;;5011797;28;20415;-64
2022/08/22 03:49:14;;;;;;;17.90;6.17;;;17.10;1.00;;;;;;5011835;28;20765;-65
2022/08/22 03:52:17;;;;;;;8.73;5.40;;;17.10;1.00;;;;;;5011770;28;20478;-65
2022/08/22 03:55:01;;;;;;;6.10;5.37;;;17.10;1.00;;;;;;5011854;28;20422;-65
2022/08/22 03:57:51;;;;;;;9.77;5.50;;;16.90;99.90;;;;;;5011581;28;20513;-65
2022/08/22 04:00:30;;;;;;;10.30;5.53;;;16.80;99.90;;;;;;5011812;28;20765;-65
2022/08/22 04:03:21;;;;;;;14.13;5.03;;;16.80;99.90;;;;;;5011526;28;20781;-64
2022/08/22 04:06:07;;;;;;;7.47;5.30;;;16.90;99.90;;;;;;5010812;28;20527;-65
2022/08/22 04:08:49;;;;;;;7.17;5.43;;;16.80;1.00;;;;;;4997579;28;20537;-65
2022/08/22 04:11:45;;;;;;;12.53;5.93;;;16.90;1.00;;;;;;5011572;28;20888;-65
2022/08/22 04:14:38;;;;;;;17.90;6.17;;;16.70;1.00;;;;;;5011451;28;20947;-65
2022/08/22 04:17:28;;;;;;;11.93;6.17;;;16.80;1.00;;;;;;5011485;28;20437;-66
2022/08/22 04:20:12;;;;;;;5.80;4.60;;;16.70;1.00;;;;;;5011214;28;20442;-65
2022/08/22 04:23:02;;;;;;;13.73;5.63;;;16.70;1.00;;;;;;4994072;28;20443;-65
2022/08/22 04:25:37;;;;;;;21.27;6.67;;;16.60;99.90;;;;;;5011310;28;20837;-65
2022/08/22 04:28:14;;;;;;;9.23;5.50;;;16.80;20.40;;;;;;5011337;28;20386;-65
2022/08/22 04:30:51;;;;;;;12.57;6.70;;;16.80;57.80;;;;;;5011502;28;20395;-65
2022/08/22 04:33:30;;;;;;;12.20;5.60;;;16.70;99.90;;;;;;5011339;28;20411;-65
2022/08/22 04:36:07;;;;;;;12.27;5.80;;;16.70;99.90;;;;;;5011372;28;20819;-64
2022/08/22 04:38:42;;;;;;;21.00;6.77;;;16.70;99.90;;;;;;5011092;28;20426;-63
2022/08/22 04:41:16;;;;;;;10.43;6.17;;;16.70;99.90;;;;;;5011067;28;20509;-65
2022/08/22 04:43:51;;;;;;;14.97;6.40;;;16.70;99.90;;;;;;5011213;28;20451;-64
2022/08/22 04:46:26;;;;;;;11.43;5.40;;;16.70;99.90;;;;;;5011228;28;20419;-65
2022/08/22 04:49:15;;;;;;;6.60;6.00;;;16.80;99.90;;;;;;5010845;28;20493;-65
2022/08/22 04:51:52;;;;;;;12.03;6.00;;;16.60;1.00;;;;;;5011129;28;20383;-65
2022/08/22 04:54:48;;;;;;;15.03;6.87;;;16.70;1.00;;;;;;5011119;28;20938;-65
2022/08/22 04:57:41;;;;;;;14.70;6.67;;;16.80;1.00;;;;;;5033420;23;20490;-68
2022/08/22 05:00:09;;;;;;;7.83;5.57;;;16.90;99.90;;;;;;5010525;28;20456;-68
2022/08/22 05:02:39;;;;;;;5.80;5.10;;;16.90;99.90;;;;;;5010743;28;20451;-68
2022/08/22 05:05:22;;;;;;;13.87;6.07;;;17.00;99.90;;;;;;5010627;28;20422;-68
2022/08/22 05:07:55;;;;;;;5.57;4.93;;;17.00;99.90;;;;;;5010696;28;20957;-69
2022/08/22 05:10:32;;;;;;;6.70;5.80;;;16.90;99.90;;;;;;5010571;28;20399;-69
2022/08/22 05:13:34;;;;;;;22.10;8.70;;;16.90;99.90;;;;;;5010859;28;20853;-69
2022/08/22 05:16:04;;;;;;;11.23;5.93;;;17.10;1.00;;;;;;4994827;28;20529;-68
2022/08/22 05:18:39;;;;;;;6.50;5.77;;;17.20;1.00;;;;;;5013956;28;20850;-68
2022/08/22 05:21:08;;;;;;;7.97;5.70;;;17.30;1.00;;;;;;5014284;28;20465;-67
2022/08/22 05:24:06;;;;;;;13.80;6.17;;;17.30;1.00;;;;;;5014739;28;20411;-68
2022/08/22 05:26:41;;;;;;;8.03;6.27;;;18.00;1.00;;;;;;4998713;28;20951;-68
2022/08/22 05:29:09;;;;;;;17.33;6.23;;;19.40;1.00;;;;;;5014047;28;20407;-68
2022/08/22 05:31:46;;;;;;;10.30;5.60;;;20.60;1.00;;;;;;5014771;28;20468;-68
2022/08/22 05:34:23;;;;;;;11.40;6.67;;;21.50;99.90;;;;;;5014389;28;20395;-68
2022/08/22 05:36:59;;;;;;;12.40;6.10;;;21.20;99.90;;;;;;5014576;28;20430;-67
2022/08/22 05:39:27;;;;;;;11.47;5.70;;;20.80;99.90;;;;;;5014146;28;20472;-68
2022/08/22 05:41:59;;;;;;;12.00;7.10;;;20.10;99.90;;;;;;5013643;28;20450;-68
2022/08/22 05:44:33;;;;;;;6.03;5.37;;;19.80;99.90;;;;;;5013745;28;20507;-69
2022/08/22 05:47:11;;;;;;;7.50;6.63;;;19.90;99.90;;;;;;5013536;28;20437;-69
2022/08/22 05:49:48;;;;;;;10.00;6.30;;;20.00;99.90;;;;;;5013777;28;20408;-69
2022/08/22 05:52:47;;;;;;;9.83;5.90;;;20.20;99.90;;;;;;5013316;28;20403;-68
2022/08/22 05:55:37;;;;;;;7.23;6.37;;;20.50;99.90;;;;;;5014204;28;20405;-68
2022/08/22 05:58:34;;;;;;;8.00;6.90;;;20.60;99.90;;;;;;5013419;28;20822;-69
2022/08/22 06:01:21;;;;;;;12.90;6.90;;;20.20;99.90;;;;;;5018306;28;20501;-68
2022/08/22 06:04:07;;;;;;;7.30;5.60;;;19.90;99.90;;;;;;5014929;28;20876;-68
2022/08/22 06:07:02;;;;;;;6.50;5.50;;;20.00;99.90;;;;;;5019678;28;20431;-68
2022/08/22 06:09:40;;;;;;;10.53;6.97;;;20.00;99.90;;;;;;5017289;28;20415;-68
2022/08/22 06:12:27;;;;;;;8.30;6.40;;;20.40;99.90;;;;;;5022567;28;20405;-68
2022/08/22 06:14:58;;;;;;;8.30;6.37;;;20.30;99.90;;;;;;5014617;28;20403;-68
2022/08/22 06:17:34;;;;;;;10.80;6.40;;;20.70;99.90;;;;;;5013856;28;20828;-68
2022/08/22 06:20:01;;;;;;;7.53;6.70;;;21.00;99.90;;;;;;5013156;28;20411;-68
2022/08/22 06:22:30;;;;;;;7.47;6.70;;;21.30;99.90;;;;;;5013527;28;20513;-68
2022/08/22 06:25:14;;;;;;;6.57;5.97;;;21.30;99.90;;;;;;5012971;28;20418;-69
2022/08/22 06:27:42;;;;;;;11.50;7.20;;;21.00;99.90;;;;;;5012166;28;20447;-69
2022/08/22 06:30:11;;;;;;;8.13;6.40;;;20.70;99.90;;;;;;5012912;28;20404;-70
2022/08/22 06:32:41;;;;;;;9.53;6.83;;;20.90;99.90;;;;;;5013577;28;20470;-69
2022/08/22 06:35:19;;;;;;;8.30;6.70;;;20.90;99.90;;;;;;5012703;28;20423;-69
2022/08/22 06:37:48;;;;;;;15.37;7.20;;;21.00;99.90;;;;;;5012598;28;20403;-69
2022/08/22 06:40:16;;;;;;;10.23;7.03;;;21.60;99.90;;;;;;5012669;28;20981;-71
2022/08/22 06:42:49;;;;;;;12.63;7.17;;;21.70;99.90;;;;;;5012658;28;20479;-69
2022/08/22 06:45:17;;;;;;;9.40;7.00;;;21.70;99.90;;;;;;5012706;28;20427;-69
2022/08/22 06:47:56;;;;;;;14.90;8.77;;;21.80;99.90;;;;;;5012558;28;20423;-67
2022/08/22 06:50:54;;;;;;;10.20;7.57;;;22.40;99.90;;;;;;5013066;28;20403;-69
2022/08/22 06:53:37;;;;;;;7.57;6.87;;;22.40;99.90;;;;;;5012673;28;20411;-69
2022/08/22 06:56:06;;;;;;;8.03;7.23;;;22.10;99.90;;;;;;5012388;28;21075;-69
2022/08/22 06:58:34;;;;;;;8.63;6.93;;;21.90;99.90;;;;;;5012671;28;20837;-69
2022/08/22 07:01:05;;;;;;;8.07;7.10;;;21.50;99.90;;;;;;5013327;28;20478;-69
2022/08/22 07:03:36;;;;;;;7.40;6.70;;;21.90;99.90;;;;;;5012574;28;20430;-69
2022/08/22 07:06:02;;;;;;;10.57;7.30;;;22.00;99.90;;;;;;5012092;28;20426;-68
2022/08/22 07:08:33;;;;;;;8.07;7.37;;;22.40;99.90;;;;;;5011971;28;20920;-68
2022/08/22 07:11:14;;;;;;;16.33;8.10;;;21.80;99.90;;;;;;5012276;28;20403;-67
2022/08/22 07:13:46;;;;;;;12.33;7.77;;;21.80;99.90;;;;;;5012508;28;20910;-69
2022/08/22 07:16:12;;;;;;;10.40;8.50;;;21.70;99.90;;;;;;5011917;28;20574;-71
2022/08/22 07:18:49;;;;;;;11.70;7.63;;;21.70;99.90;;;;;;5011791;28;20472;-69
2022/08/22 07:21:45;;;;;;;9.17;8.23;;;20.90;99.90;;;;;;5012729;28;20262;-69
2022/08/22 07:24:15;;;;;;;9.83;8.97;;;20.50;99.90;;;;;;5012181;28;20892;-69
2022/08/22 07:26:50;;;;;;;13.00;9.27;;;21.30;99.90;;;;;;5012086;28;20510;-67
2022/08/22 07:29:37;;;;;;;8.83;7.90;;;22.30;99.90;;;;;;5011696;28;20410;-70
2022/08/22 07:32:17;;;;;;;12.73;8.67;;;22.60;99.90;;;;;;5012079;28;20855;-68
2022/08/22 07:35:07;;;;;;;12.40;9.27;;;22.70;99.90;;;;;;5012034;28;20414;-67
2022/08/22 07:37:49;;;;;;;14.20;9.90;;;22.30;99.90;;;;;;5011880;28;20458;-68
2022/08/22 07:40:23;;;;;;;13.27;10.07;;;21.30;99.90;;;;;;5011377;28;20415;-68
2022/08/22 07:43:04;;;;;;;14.03;8.63;;;21.80;99.90;;;;;;5011750;28;20469;-67
2022/08/22 07:45:55;;;;;;;11.33;10.10;;;21.90;99.90;;;;;;5011892;28;20458;-67
2022/08/22 07:48:35;;;;;;;13.23;10.20;;;22.00;99.90;;;;;;5011504;28;20797;-68
2022/08/22 07:51:07;;;;;;;10.97;10.00;;;22.40;99.90;;;;;;5012215;28;20849;-69
2022/08/22 07:53:48;;;;;;;16.10;9.40;;;22.90;99.90;;;;;;5012136;28;20923;-67
2022/08/22 07:56:22;;;;;;;10.97;9.80;;;22.80;99.90;;;;;;5011716;28;20455;-66
2022/08/22 07:58:59;;;;;;;19.13;10.70;;;22.60;99.90;;;;;;5011706;28;20766;-66
2022/08/22 08:01:26;;;;;;;12.37;11.00;;;23.30;99.90;;;;;;5011234;28;20461;-70
2022/08/22 08:04:06;;;;;;;16.37;9.63;;;23.90;99.90;;;;;;5011343;28;20449;-67
2022/08/22 08:06:33;;;;;;;10.73;9.50;;;23.90;99.90;;;;;;5011426;28;20431;-67
2022/08/22 08:09:00;;;;;;;10.67;9.57;;;22.90;99.90;;;;;;5011248;28;20419;-68
2022/08/22 08:11:31;;;;;;;12.27;9.80;;;23.10;99.90;;;;;;5011449;28;20449;-68
2022/08/22 08:14:00;;;;;;;13.57;11.07;;;22.50;99.90;;;;;;5011670;28;20770;-67
2022/08/22 08:16:29;;;;;;;11.40;10.23;;;23.20;99.90;;;;;;5011095;28;20437;-67
2022/08/22 08:18:58;;;;;;;11.30;10.13;;;23.10;99.90;;;;;;5011049;28;20403;-67
2022/08/22 08:21:36;;;;;;;11.27;10.10;;;23.10;99.90;;;;;;5011426;28;20478;-68
2022/08/22 08:24:04;;;;;;;9.97;9.00;;;23.20;99.90;;;;;;5011153;28;20465;-67
2022/08/22 08:26:36;;;;;;;11.87;10.60;;;23.30;99.90;;;;;;5011239;28;20423;-69
2022/08/22 08:29:06;;;;;;;11.83;10.37;;;22.80;99.90;;;;;;5011266;28;20469;-69
2022/08/22 08:31:41;;;;;;;11.00;9.90;;;23.10;99.90;;;;;;5011588;28;20415;-68
2022/08/22 08:34:18;;;;;;;10.77;9.87;;;23.40;99.90;;;;;;5010937;28;20407;-68
2022/08/22 08:36:59;;;;;;;12.30;11.07;;;22.90;99.90;;;;;;5011286;28;20425;-71
2022/08/22 08:39:52;;;;;;;14.00;12.20;;;22.60;99.90;;;;;;5011234;28;20498;-70
2022/08/22 08:43:25;;;;;;;16.70;13.50;;;22.60;99.90;;;;;;5010976;28;20495;-71
2022/08/22 08:45:34;;;;;;;12.43;11.13;;;22.60;99.90;;;;;;5011291;28;20774;-71
2022/08/22 08:48:37;;;;;;;16.83;10.23;;;22.50;99.90;;;;;;5010892;28;20407;-69
2022/08/22 08:51:54;;;;;;;11.43;10.17;;;22.50;99.90;;;;;;5014023;28;20443;-68
2022/08/22 08:54:50;;;;;;;11.20;10.10;;;22.70;99.90;;;;;;4971754;28;20411;-68
2022/08/22 08:57:35;;;;;;;28.97;10.93;;;23.00;99.90;;;;;;5014904;28;20519;-69
2022/08/22 09:00:19;;;;;;;10.93;8.63;;;23.40;99.90;;;;;;5015265;28;20415;-68
2022/08/22 09:03:13;;;;;;;11.97;9.07;;;23.20;99.90;;;;;;5016522;28;20451;-69
2022/08/22 09:05:44;;;;;;;15.90;10.10;;;23.60;99.90;;;;;;5015514;28;20411;-68
2022/08/22 09:08:31;;;;;;;10.80;8.87;;;23.50;99.90;;;;;;5014534;28;20399;-69
2022/08/22 09:11:39;;;;;;;9.97;9.00;;;23.50;99.90;;;;;;5014599;28;20402;-68
2022/08/22 09:14:46;;;;;;;11.80;8.90;;;23.40;99.90;;;;;;5014372;28;20412;-69
2022/08/22 09:17:41;;;;;;;18.93;9.07;;;23.30;99.90;;;;;;5012276;28;20439;-68
2022/08/22 09:20:10;;;;;;;9.33;8.43;;;23.80;99.90;;;;;;5007073;28;20780;-70
2022/08/22 09:23:13;;;;;;;11.93;9.87;;;24.20;99.90;;;;;;5014213;28;20541;-68
2022/08/22 09:25:48;;;;;;;11.40;9.90;;;24.40;99.90;;;;;;5014253;28;20403;-68
2022/08/22 09:28:21;;;;;;;10.13;8.97;;;24.40;99.90;;;;;;5014107;28;20778;-69
2022/08/22 09:30:50;;;;;;;9.33;8.00;;;23.90;99.90;;;;;;5014354;28;20793;-68
2022/08/22 09:33:20;;;;;;;11.23;8.93;;;24.20;99.90;;;;;;5014743;28;20404;-68
2022/08/22 09:36:05;;;;;;;9.33;7.10;;;24.50;99.90;;;;;;5014159;28;20419;-68
2022/08/22 09:38:58;;;;;;;9.27;7.80;;;24.10;99.90;;;;;;5014515;28;20391;-68
2022/08/22 09:41:57;;;;;;;14.80;8.97;;;24.30;99.90;;;;;;5014207;28;20450;-68
2022/08/22 09:44:47;;;;;;;8.60;7.90;;;24.40;99.90;;;;;;5014237;28;20442;-69
2022/08/22 09:47:38;;;;;;;16.43;9.03;;;24.50;99.90;;;;;;5013650;28;20799;-69
2022/08/22 09:50:43;;;;;;;15.63;9.03;;;24.50;99.90;;;;;;5013537;28;20453;-68
2022/08/22 09:53:14;;;;;;;15.20;9.13;;;25.00;99.90;;;;;;5013943;28;20812;-69
2022/08/22 09:55:51;;;;;;;9.37;8.27;;;24.70;99.90;;;;;;5013500;28;20439;-68
2022/08/22 09:58:17;;;;;;;9.70;8.10;;;24.60;99.90;;;;;;5013179;28;20402;-69
2022/08/22 10:00:59;;;;;;;11.47;8.57;;;24.80;99.90;;;;;;5012047;28;20439;-69
2022/08/22 10:04:05;;;;;;;14.07;7.97;;;25.00;99.90;;;;;;5012196;28;20180;-69
2022/08/22 10:06:58;;;;;;;9.43;7.33;;;25.10;99.90;;;;;;5013187;28;20469;-68
2022/08/22 10:09:41;;;;;;;14.13;8.00;;;24.80;99.90;;;;;;4986540;28;20443;-69
2022/08/22 10:12:18;;;;;;;14.83;7.77;;;24.80;99.90;;;;;;5013281;28;20415;-68
2022/08/22 10:15:14;;;;;;;9.33;8.60;;;24.70;99.90;;;;;;5013510;28;20908;-68
2022/08/22 10:17:54;;;;;;;11.77;8.13;;;24.50;99.90;;;;;;5004810;28;20443;-69
2022/08/22 10:20:29;;;;;;;9.50;6.97;;;24.50;99.90;;;;;;5013164;28;20440;-69
2022/08/22 10:23:13;;;;;;;11.90;7.40;;;24.90;99.90;;;;;;5013283;28;20879;-68
2022/08/22 10:25:49;;;;;;;9.53;7.40;;;24.80;99.90;;;;;;5012996;28;20398;-69
2022/08/22 10:28:52;;;;;;;9.60;8.60;;;25.10;99.90;;;;;;5013200;28;20912;-69
2022/08/22 10:31:45;;;;;;;17.73;9.13;;;24.70;99.90;;;;;;4982794;28;20415;-68
2022/08/22 10:34:21;;;;;;;19.00;8.63;;;25.00;99.90;;;;;;5012974;28;20537;-67
2022/08/22 10:36:49;;;;;;;27.80;9.37;;;25.10;99.90;;;;;;5012893;28;20450;-66
2022/08/22 10:39:25;;;;;;;7.40;6.80;;;25.30;99.90;;;;;;5013000;28;20436;-68
2022/08/22 10:42:08;;;;;;;7.97;6.80;;;25.30;99.90;;;;;;5012565;28;20469;-68
2022/08/22 10:44:39;;;;;;;10.37;7.07;;;25.10;99.90;;;;;;5012467;28;20435;-68
2022/08/22 10:47:12;;;;;;;11.87;7.50;;;25.10;99.90;;;;;;5012163;28;20746;-69
2022/08/22 10:49:53;;;;;;;7.60;6.93;;;25.00;99.90;;;;;;5012592;28;20454;-68
2022/08/22 10:52:34;;;;;;;9.47;7.00;;;24.80;99.90;;;;;;5012380;28;20407;-70
2022/08/22 10:55:12;;;;;;;14.20;6.20;;;24.70;99.90;;;;;;5012669;28;20477;-69
2022/08/22 10:57:45;;;;;;;18.63;6.90;;;24.70;99.90;;;;;;5035705;23;20493;-67
2022/08/22 11:00:36;;;;;;;11.20;6.40;;;25.30;99.90;;;;;;5012195;28;20453;-67
2022/08/22 11:03:13;;;;;;;10.13;6.67;;;26.00;99.90;;;;;;5010900;28;20419;-67
2022/08/22 11:05:45;;;;;;;8.20;6.23;;;26.30;99.90;;;;;;5012122;28;20414;-67
2022/08/22 11:08:22;;;;;;;14.97;7.03;;;26.10;99.90;;;;;;5011836;28;20404;-67
2022/08/22 11:11:26;;;;;;;13.73;7.00;;;25.70;99.90;;;;;;5012175;28;20399;-67
2022/08/22 11:14:14;;;;;;;10.97;7.00;;;25.00;99.90;;;;;;4974902;28;20422;-67
2022/08/22 11:17:02;;;;;;;8.50;6.50;;;24.80;99.90;;;;;;5011997;28;20573;-66
2022/08/22 11:19:56;;;;;;;10.90;7.00;;;25.10;99.90;;;;;;5011668;28;20399;-66
2022/08/22 11:23:09;;;;;;;6.73;6.03;;;25.50;99.90;;;;;;4941437;28;20549;-65
2022/08/22 11:26:14;;;;;;;8.23;5.20;;;25.60;99.90;;;;;;4951111;28;20416;-66
2022/08/22 11:29:27;;;;;;;6.57;5.80;;;25.40;99.90;;;;;;5010965;28;20521;-66
2022/08/22 11:32:18;;;;;;;8.17;6.13;;;25.20;99.90;;;;;;5004362;28;20427;-65
2022/08/22 11:34:57;;;;;;;7.00;5.90;;;25.20;99.90;;;;;;5011789;28;20989;-66
2022/08/22 11:37:57;;;;;;;12.07;7.90;;;25.30;99.90;;;;;;5011378;28;20418;-65
2022/08/22 11:40:30;;;;;;;7.80;5.97;;;25.30;99.90;;;;;;5011546;28;20404;-66
2022/08/22 11:43:01;;;;;;;5.97;5.47;;;25.30;99.90;;;;;;5011725;28;20455;-66
2022/08/22 11:45:35;;;;;;;6.07;5.47;;;25.20;99.90;;;;;;5011500;28;20856;-66
2022/08/22 11:48:18;;;;;;;9.40;8.40;;;25.00;99.90;;;;;;5011073;28;20754;-66
2022/08/22 11:50:51;;;;;;;13.13;6.20;;;25.00;99.90;;;;;;5011497;28;20395;-66
2022/08/22 11:53:34;;;;;;;8.73;7.20;;;24.80;99.90;;;;;;5011368;28;20813;-66
2022/08/22 11:56:22;;;;;;;9.70;6.50;;;25.00;99.90;;;;;;5011303;28;20445;-66
2022/08/22 11:59:06;;;;;;;7.13;6.47;;;24.80;99.90;;;;;;5011383;28;21105;-66
2022/08/22 12:01:42;;;;;;;6.53;5.70;;;24.80;99.90;;;;;;5011372;28;20531;-66
2022/08/22 12:04:10;;;;;;;6.67;5.63;;;25.00;99.90;;;;;;5011270;28;20403;-66
2022/08/22 12:06:48;;;;;;;6.40;5.70;;;25.00;99.90;;;;;;5011147;28;20482;-66
2022/08/22 12:09:21;;;;;;;6.07;5.50;;;25.30;99.90;;;;;;5010754;28;20395;-66
2022/08/22 12:11:55;;;;;;;5.63;5.07;;;25.30;99.90;;;;;;5011282;28;20408;-66
2022/08/22 12:14:39;;;;;;;8.23;5.37;;;25.20;99.90;;;;;;5010970;28;20445;-66
2022/08/22 12:17:20;;;;;;;6.27;4.97;;;25.20;99.90;;;;;;5010744;28;20430;-66
2022/08/22 12:20:19;;;;;;;5.23;4.50;;;25.10;99.90;;;;;;5011012;28;20399;-66
2022/08/22 12:23:06;;;;;;;5.10;4.63;;;24.90;99.90;;;;;;5011082;28;20447;-66
2022/08/22 12:25:45;;;;;;;6.77;4.87;;;25.20;99.90;;;;;;5014165;28;20439;-66
2022/08/22 12:28:41;;;;;;;5.43;4.80;;;25.50;99.90;;;;;;5023284;28;20407;-66
2022/08/22 12:31:13;;;;;;;4.53;4.13;;;25.40;99.90;;;;;;5022575;28;20445;-66
2022/08/22 12:34:15;;;;;;;6.60;4.97;;;25.10;99.90;;;;;;5017312;28;20415;-67
2022/08/22 12:37:07;;;;;;;9.03;5.57;;;24.90;99.90;;;;;;5014740;28;20423;-67
2022/08/22 12:39:51;;;;;;;5.87;4.50;;;24.90;99.90;;;;;;5014686;28;20411;-66
2022/08/22 12:42:23;;;;;;;5.00;4.50;;;24.70;99.90;;;;;;5014584;28;20870;-66
2022/08/22 12:45:20;;;;;;;4.90;4.20;;;24.60;99.90;;;;;;5014699;28;20407;-66
2022/08/22 12:47:48;;;;;;;5.53;4.87;;;24.80;99.90;;;;;;5014299;28;20414;-65
2022/08/22 12:50:34;;;;;;;32.90;7.93;;;25.10;99.90;;;;;;5015086;28;20400;-65
2022/08/22 12:53:32;;;;;;;11.37;5.33;;;25.50;99.90;;;;;;5014833;28;20751;-65
2022/08/22 12:56:33;;;;;;;5.80;4.93;;;25.80;99.90;;;;;;5014373;28;20450;-65
2022/08/22 12:59:19;;;;;;;7.40;5.10;;;25.60;99.90;;;;;;4997061;28;20419;-67
2022/08/22 13:01:49;;;;;;;10.60;5.57;;;25.60;99.90;;;;;;5014846;28;20442;-65
2022/08/22 13:04:18;;;;;;;6.27;4.07;;;25.30;99.90;;;;;;5015298;28;20762;-65
2022/08/22 13:06:47;;;;;;;5.63;4.33;;;25.50;99.90;;;;;;5014573;28;20422;-65
2022/08/22 13:09:18;;;;;;;8.53;4.20;;;25.60;99.90;;;;;;5014511;28;20403;-65
2022/08/22 13:11:48;;;;;;;5.63;3.67;;;25.50;99.90;;;;;;5014332;28;20411;-65
2022/08/22 13:14:25;;;;;;;5.60;4.30;;;25.60;99.90;;;;;;5014495;28;20806;-65
2022/08/22 13:16:55;;;;;;;6.03;4.00;;;25.50;99.90;;;;;;5014247;28;20437;-65
2022/08/22 13:19:26;;;;;;;7.00;4.70;;;25.60;99.90;;;;;;5014291;28;20411;-65
2022/08/22 13:22:00;;;;;;;4.97;4.57;;;25.50;99.90;;;;;;5014015;28;20434;-66
2022/08/22 13:24:37;;;;;;;5.10;4.60;;;25.50;99.90;;;;;;5014136;28;20537;-67
2022/08/22 13:27:10;;;;;;;5.30;4.37;;;25.40;99.90;;;;;;5013974;28;20490;-66
2022/08/22 13:29:45;;;;;;;5.50;3.57;;;25.30;99.90;;;;;;5014316;28;20388;-64
2022/08/22 13:32:24;;;;;;;5.00;4.10;;;25.20;99.90;;;;;;5014158;28;20415;-66
2022/08/22 13:34:54;;;;;;;8.53;4.53;;;25.40;99.90;;;;;;5014006;28;20957;-66
2022/08/22 13:37:34;;;;;;;5.10;4.00;;;25.60;99.90;;;;;;5014012;28;20773;-66
2022/08/22 13:40:04;;;;;;;10.73;5.23;;;25.50;99.90;;;;;;5013737;28;20800;-66
2022/08/22 13:42:35;;;;;;;4.40;3.73;;;25.50;99.90;;;;;;5013706;28;20439;-66
2022/08/22 13:45:09;;;;;;;6.43;4.10;;;25.50;99.90;;;;;;5013268;28;20442;-66
2022/08/22 13:47:46;;;;;;;5.47;3.83;;;25.40;99.90;;;;;;5013431;28;20430;-65
2022/08/22 13:50:17;;;;;;;7.00;4.63;;;25.30;99.90;;;;;;5013379;28;20410;-66
2022/08/22 13:52:53;;;;;;;8.17;3.67;;;25.40;99.90;;;;;;5013613;28;20441;-66
2022/08/22 13:55:25;;;;;;;6.93;3.60;;;25.50;99.90;;;;;;5013626;28;20410;-66
2022/08/22 13:57:58;;;;;;;9.80;4.57;;;25.40;99.90;;;;;;5013125;28;20762;-66